Time;durP1;ratioP1;P1;durP2;ratioP2;P2;SDS_P1;SDS_P2;PMS_P1;PMS_P2;Temp;Humidity;BMP_temperature;BMP_pressure;BME280_temperature;BME280_humidity;BME280_pressure;Samples;Min_cycle;Max_cycle;Signal;HPM_P1;HPM_P2
2022/03/23 00:02:25;;;;;;;25.57;12.90;;;9.60;99.90;;;;;;5056659;28;20219;-60
2022/03/23 00:04:52;;;;;;;34.73;13.67;;;9.60;99.90;;;;;;5056259;28;20177;-61
2022/03/23 00:07:20;;;;;;;24.30;12.83;;;9.50;99.90;;;;;;5058762;28;20698;-60
2022/03/23 00:09:45;;;;;;;24.40;12.97;;;9.50;99.90;;;;;;5065390;28;20766;-59
2022/03/23 00:12:11;;;;;;;26.73;12.63;;;9.50;99.90;;;;;;5068899;28;20247;-59
2022/03/23 00:14:37;;;;;;;23.37;12.47;;;9.40;99.90;;;;;;5069253;28;20180;-60
2022/03/23 00:17:04;;;;;;;25.30;12.67;;;9.40;99.90;;;;;;5057198;28;20173;-59
2022/03/23 00:19:30;;;;;;;27.77;13.47;;;9.30;99.90;;;;;;5069926;28;20184;-59
2022/03/23 00:21:56;;;;;;;26.47;13.50;;;9.30;99.90;;;;;;5060117;28;20209;-59
2022/03/23 00:24:22;;;;;;;25.03;13.60;;;9.20;99.90;;;;;;5059305;28;20245;-60
2022/03/23 00:26:47;;;;;;;24.00;13.23;;;9.20;99.90;;;;;;5057956;28;20781;-60
2022/03/23 00:29:13;;;;;;;28.93;13.17;;;9.20;99.90;;;;;;5066386;28;20184;-61
2022/03/23 00:31:39;;;;;;;23.23;13.27;;;9.10;99.90;;;;;;5069630;28;20181;-61
2022/03/23 00:34:05;;;;;;;21.70;13.20;;;9.10;99.90;;;;;;5056617;28;20199;-61
2022/03/23 00:36:31;;;;;;;25.60;13.20;;;9.00;99.90;;;;;;5068767;28;20266;-61
2022/03/23 00:38:57;;;;;;;23.23;13.03;;;9.00;99.90;;;;;;5054228;28;20168;-61
2022/03/23 00:41:23;;;;;;;22.93;13.57;;;9.00;99.90;;;;;;5066287;28;20592;-60
2022/03/23 00:43:49;;;;;;;21.33;13.13;;;8.90;99.90;;;;;;5064217;28;20229;-58
2022/03/23 00:46:15;;;;;;;27.87;13.30;;;8.90;99.90;;;;;;5056226;28;20180;-59
2022/03/23 00:48:42;;;;;;;25.30;12.83;;;8.90;99.90;;;;;;5067814;28;20189;-59
2022/03/23 00:51:08;;;;;;;23.07;12.30;;;8.90;99.90;;;;;;5061321;28;20169;-60
2022/03/23 00:53:34;;;;;;;24.70;13.27;;;8.70;99.90;;;;;;5050233;28;20231;-59
2022/03/23 00:56:00;;;;;;;23.80;12.97;;;8.50;99.90;;;;;;5059460;28;20192;-59
2022/03/23 00:58:26;;;;;;;26.53;13.47;;;8.40;99.90;;;;;;5064928;28;20181;-60
2022/03/23 01:00:52;;;;;;;28.73;13.07;;;8.40;99.90;;;;;;5050119;28;20184;-60
2022/03/23 01:03:18;;;;;;;22.60;13.20;;;8.30;99.90;;;;;;5061956;28;20707;-61
2022/03/23 01:05:44;;;;;;;23.63;13.43;;;8.30;99.90;;;;;;5049875;28;20333;-60
2022/03/23 01:08:09;;;;;;;30.60;14.27;;;8.10;99.90;;;;;;5057177;28;20180;-59
2022/03/23 01:10:36;;;;;;;22.77;13.57;;;8.10;99.90;;;;;;5051214;28;20225;-60
2022/03/23 01:13:02;;;;;;;23.13;12.87;;;8.00;99.90;;;;;;5059651;28;20192;-60
2022/03/23 01:15:29;;;;;;;28.33;13.53;;;8.00;99.90;;;;;;5065096;28;20208;-61
2022/03/23 01:17:55;;;;;;;31.30;13.83;;;7.90;99.90;;;;;;5050117;28;20186;-62
2022/03/23 01:20:22;;;;;;;27.13;13.37;;;7.90;99.90;;;;;;5050426;28;20192;-59
2022/03/23 01:22:50;;;;;;;28.20;13.60;;;7.80;99.90;;;;;;5065014;28;20293;-59
2022/03/23 01:25:16;;;;;;;33.30;13.87;;;7.70;99.90;;;;;;5073051;28;20185;-59
2022/03/23 01:27:42;;;;;;;27.93;14.37;;;7.60;99.90;;;;;;5073362;28;20187;-59
2022/03/23 01:30:14;;;;;;;30.17;13.83;;;7.60;99.90;;;;;;5073225;28;20322;-60
2022/03/23 01:32:41;;;;;;;28.37;14.17;;;7.50;99.90;;;;;;5067346;28;20201;-60
2022/03/23 01:35:08;;;;;;;30.53;13.80;;;7.50;99.90;;;;;;5053649;28;20211;-60
2022/03/23 01:37:34;;;;;;;25.87;13.53;;;7.50;99.90;;;;;;5053460;28;20256;-60
2022/03/23 01:40:01;;;;;;;25.23;13.43;;;7.50;99.90;;;;;;5069593;28;20185;-59
2022/03/23 01:42:28;;;;;;;27.03;13.10;;;7.50;99.90;;;;;;5071432;28;20775;-59
2022/03/23 01:44:54;;;;;;;26.27;13.20;;;7.40;99.90;;;;;;5073218;28;20543;-59
2022/03/23 01:47:20;;;;;;;32.27;13.63;;;7.30;99.90;;;;;;5072449;28;20188;-59
2022/03/23 01:49:49;;;;;;;23.30;12.73;;;7.30;99.90;;;;;;5073003;28;20266;-59
2022/03/23 01:52:17;;;;;;;24.57;13.20;;;7.30;99.90;;;;;;5071339;28;20231;-59
2022/03/23 01:54:44;;;;;;;23.33;13.63;;;7.40;99.90;;;;;;5072982;28;20177;-59
2022/03/23 01:57:13;;;;;;;28.93;13.77;;;7.40;99.90;;;;;;5067615;28;20179;-60
2022/03/23 01:59:39;;;;;;;24.50;13.27;;;7.40;99.90;;;;;;5072869;28;20654;-60
2022/03/23 02:02:06;;;;;;;28.43;12.90;;;7.40;99.90;;;;;;5065165;28;20208;-60
2022/03/23 02:04:32;;;;;;;25.83;12.97;;;7.30;99.90;;;;;;5072236;28;20173;-60
2022/03/23 02:06:57;;;;;;;25.63;13.00;;;7.30;99.90;;;;;;5053345;28;20177;-60
2022/03/23 02:09:25;;;;;;;26.17;12.87;;;7.20;99.90;;;;;;5052961;28;20319;-60
2022/03/23 02:11:52;;;;;;;29.17;13.47;;;7.10;99.90;;;;;;5061014;28;20236;-60
2022/03/23 02:14:19;;;;;;;22.40;13.37;;;7.10;99.90;;;;;;5071366;28;20180;-60
2022/03/23 02:16:53;;;;;;;27.20;12.83;;;7.10;99.90;;;;;;5072387;28;20180;-60
2022/03/23 02:19:21;;;;;;;21.53;12.87;;;7.00;99.90;;;;;;5056271;28;20539;-60
2022/03/23 02:21:54;;;;;;;21.80;12.73;;;6.90;99.90;;;;;;5060310;28;20188;-60
2022/03/23 02:24:25;;;;;;;26.13;13.27;;;6.90;99.90;;;;;;5053607;28;20185;-60
2022/03/23 02:26:52;;;;;;;23.27;13.23;;;6.90;99.90;;;;;;5064437;28;20184;-60
2022/03/23 02:29:23;;;;;;;26.73;14.07;;;6.90;99.90;;;;;;5072146;28;20204;-60
2022/03/23 02:31:49;;;;;;;27.03;13.70;;;6.80;99.90;;;;;;5072369;28;20195;-60
2022/03/23 02:34:16;;;;;;;26.90;14.10;;;6.70;99.90;;;;;;5063619;28;20246;-60
2022/03/23 02:36:43;;;;;;;23.13;14.10;;;6.70;99.90;;;;;;5058055;28;20164;-60
2022/03/23 02:39:09;;;;;;;28.57;13.93;;;6.80;99.90;;;;;;5072578;28;20634;-60
2022/03/23 02:41:35;;;;;;;26.90;14.57;;;6.80;99.90;;;;;;5072114;28;20180;-60
2022/03/23 02:44:01;;;;;;;26.43;13.43;;;6.70;99.90;;;;;;5055722;28;20647;-60
2022/03/23 02:46:28;;;;;;;30.47;14.33;;;6.80;99.90;;;;;;5057048;28;20177;-60
2022/03/23 02:48:54;;;;;;;29.13;14.40;;;6.80;99.90;;;;;;5034102;28;20184;-61
2022/03/23 02:51:20;;;;;;;30.97;14.50;;;6.70;99.90;;;;;;5066207;28;20638;-59
2022/03/23 03:02:36;;;;;;;29.40;13.70;;;6.80;99.90;;;;;;5071147;28;20328;-59
2022/03/23 03:05:03;;;;;;;27.40;13.40;;;6.80;99.90;;;;;;5071467;28;20171;-59
2022/03/23 03:08:44;;;;;;;34.97;14.50;;;6.90;99.90;;;;;;5058633;28;20185;-62
2022/03/23 03:10:16;;;;;;;29.70;14.27;;;6.80;99.90;;;;;;5067170;28;20208;-60
2022/03/23 03:12:42;;;;;;;30.63;13.83;;;6.80;99.90;;;;;;5070903;28;20192;-60
2022/03/23 03:15:10;;;;;;;25.53;15.00;;;6.70;99.90;;;;;;5058280;28;20169;-59
2022/03/23 03:17:36;;;;;;;27.67;14.30;;;6.60;99.90;;;;;;5068252;28;20204;-59
2022/03/23 03:20:04;;;;;;;26.30;14.17;;;6.60;99.90;;;;;;5051638;28;20244;-60
2022/03/23 03:22:35;;;;;;;25.23;13.40;;;6.60;99.90;;;;;;5056119;28;20205;-59
2022/03/23 03:25:01;;;;;;;27.47;14.13;;;6.60;99.90;;;;;;5051527;28;20173;-59
2022/03/23 03:27:30;;;;;;;30.97;14.90;;;6.60;99.90;;;;;;5051448;28;20188;-59
2022/03/23 03:29:56;;;;;;;29.37;14.40;;;6.60;99.90;;;;;;5051351;28;20176;-59
2022/03/23 03:32:22;;;;;;;28.10;14.70;;;6.50;99.90;;;;;;5066138;28;20184;-59
2022/03/23 03:34:48;;;;;;;28.10;14.60;;;6.50;99.90;;;;;;5054489;28;20191;-59
2022/03/23 03:37:14;;;;;;;29.37;15.10;;;6.40;99.90;;;;;;5062824;28;20251;-59
2022/03/23 03:39:39;;;;;;;29.13;16.00;;;6.30;99.90;;;;;;5051328;28;20230;-59
2022/03/23 03:42:06;;;;;;;27.93;16.07;;;6.30;99.90;;;;;;5067574;28;20208;-60
2022/03/23 03:44:32;;;;;;;28.33;15.20;;;6.40;99.90;;;;;;5054435;28;20200;-59
2022/03/23 03:46:58;;;;;;;31.53;15.93;;;6.40;99.90;;;;;;5063936;28;20186;-60
2022/03/23 03:49:24;;;;;;;31.80;14.30;;;6.30;99.90;;;;;;5033186;28;20177;-60
2022/03/23 03:51:50;;;;;;;29.50;15.87;;;6.30;99.90;;;;;;5065448;28;20225;-59
2022/03/23 03:54:15;;;;;;;25.70;14.83;;;6.30;99.90;;;;;;5070465;28;20246;-60
2022/03/23 03:56:41;;;;;;;29.97;15.40;;;6.40;99.90;;;;;;5070801;28;20394;-59
2022/03/23 03:59:07;;;;;;;25.67;14.57;;;6.40;99.90;;;;;;5069037;28;20666;-61
2022/03/23 04:01:33;;;;;;;31.23;15.03;;;6.30;99.90;;;;;;5070665;28;20535;-59
2022/03/23 04:03:59;;;;;;;27.10;15.20;;;6.30;99.90;;;;;;5070832;28;20694;-58
2022/03/23 04:06:24;;;;;;;34.53;15.10;;;6.30;99.90;;;;;;5047827;28;20227;-58
2022/03/23 04:08:50;;;;;;;25.47;14.07;;;6.30;99.90;;;;;;5063078;28;20184;-58
2022/03/23 04:11:17;;;;;;;37.70;14.93;;;6.30;99.90;;;;;;5070415;28;20224;-58
2022/03/23 04:13:43;;;;;;;26.50;14.33;;;6.20;99.90;;;;;;5070259;28;20259;-58
2022/03/23 04:16:08;;;;;;;32.03;14.80;;;6.20;99.90;;;;;;5070434;28;20255;-58
2022/03/23 04:18:34;;;;;;;30.13;14.70;;;6.10;99.90;;;;;;5070427;28;20191;-58
2022/03/23 04:21:00;;;;;;;33.67;14.70;;;6.10;99.90;;;;;;5069036;28;20184;-59
2022/03/23 04:23:26;;;;;;;29.00;14.63;;;6.10;99.90;;;;;;5050552;28;20296;-58
2022/03/23 04:25:51;;;;;;;32.17;14.33;;;6.10;99.90;;;;;;5050606;28;20172;-59
2022/03/23 04:28:17;;;;;;;34.57;14.87;;;6.00;99.90;;;;;;5050640;28;20211;-58
2022/03/23 04:30:43;;;;;;;28.43;14.87;;;6.00;99.90;;;;;;5052120;28;20187;-58
2022/03/23 04:33:09;;;;;;;26.63;15.13;;;5.90;99.90;;;;;;5050503;28;20636;-57
2022/03/23 04:35:35;;;;;;;25.53;14.67;;;5.90;99.90;;;;;;5066536;28;20176;-60
2022/03/23 04:38:00;;;;;;;26.90;14.67;;;5.90;99.90;;;;;;5070464;28;20187;-59
2022/03/23 04:40:26;;;;;;;34.73;15.50;;;5.80;99.90;;;;;;5070310;28;20707;-58
2022/03/23 04:42:52;;;;;;;31.77;15.13;;;5.70;99.90;;;;;;5052523;28;20216;-59
2022/03/23 04:45:18;;;;;;;35.10;16.20;;;5.60;99.90;;;;;;5069297;28;20657;-59
2022/03/23 04:47:44;;;;;;;32.60;15.30;;;5.70;99.90;;;;;;5037013;28;20554;-59
2022/03/23 04:50:12;;;;;;;31.43;14.90;;;5.70;99.90;;;;;;5070571;28;20169;-59
2022/03/23 04:52:39;;;;;;;28.23;14.93;;;5.60;99.90;;;;;;5067967;28;20176;-59
2022/03/23 04:55:06;;;;;;;29.83;15.57;;;5.70;99.90;;;;;;5059109;28;20187;-59
2022/03/23 04:57:32;;;;;;;38.23;15.30;;;5.70;99.90;;;;;;5059463;28;20203;-59
2022/03/23 04:59:58;;;;;;;28.53;15.30;;;5.60;99.90;;;;;;5054198;28;20643;-59
2022/03/23 05:02:26;;;;;;;34.40;15.30;;;5.60;99.90;;;;;;5061944;28;20303;-59
2022/03/23 05:04:52;;;;;;;31.10;16.27;;;5.70;99.90;;;;;;5058722;28;20220;-59
2022/03/23 05:07:18;;;;;;;33.33;15.63;;;5.70;99.90;;;;;;5069868;28;20593;-59
2022/03/23 05:09:44;;;;;;;30.60;15.70;;;5.70;99.90;;;;;;5074080;28;20701;-59
2022/03/23 05:12:10;;;;;;;27.93;15.73;;;5.70;99.90;;;;;;5069991;28;20181;-59
2022/03/23 05:14:36;;;;;;;33.90;17.20;;;5.80;99.90;;;;;;5055383;28;20222;-59
2022/03/23 05:17:03;;;;;;;29.30;15.33;;;5.80;99.90;;;;;;5054032;28;20177;-59
2022/03/23 05:19:30;;;;;;;30.87;15.87;;;5.80;99.90;;;;;;5054036;28;20178;-59
2022/03/23 05:21:55;;;;;;;36.77;16.73;;;5.80;99.90;;;;;;5058511;28;20176;-60
2022/03/23 05:24:21;;;;;;;36.07;16.20;;;5.80;99.90;;;;;;5054051;28;20173;-58
2022/03/23 05:26:47;;;;;;;30.83;15.93;;;5.80;99.90;;;;;;5072536;28;20666;-58
2022/03/23 05:29:12;;;;;;;35.43;16.27;;;5.70;99.90;;;;;;5073573;28;20223;-58
2022/03/23 05:31:38;;;;;;;34.00;16.80;;;5.70;99.90;;;;;;5073488;28;20639;-59
2022/03/23 05:34:04;;;;;;;32.50;16.73;;;5.60;99.90;;;;;;5061375;28;20200;-59
2022/03/23 05:36:30;;;;;;;31.97;16.37;;;5.60;99.90;;;;;;5067308;28;20321;-58
2022/03/23 05:38:57;;;;;;;35.57;17.30;;;5.60;99.90;;;;;;5059382;28;20259;-59
2022/03/23 05:41:24;;;;;;;33.77;16.43;;;5.50;99.90;;;;;;5067216;28;20601;-59
2022/03/23 05:43:49;;;;;;;34.20;15.60;;;5.40;99.90;;;;;;5062074;28;20702;-59
2022/03/23 05:46:15;;;;;;;37.90;17.33;;;5.40;99.90;;;;;;5072767;28;20184;-59
2022/03/23 05:48:41;;;;;;;36.37;16.67;;;5.30;99.90;;;;;;5072953;28;20169;-59
2022/03/23 05:51:07;;;;;;;27.17;15.80;;;5.30;99.90;;;;;;5073328;28;20184;-57
2022/03/23 05:53:33;;;;;;;34.60;15.67;;;5.30;99.90;;;;;;5071744;28;20183;-58
2022/03/23 05:55:59;;;;;;;35.80;16.97;;;5.30;99.90;;;;;;5073124;28;20218;-58
2022/03/23 05:58:25;;;;;;;30.17;15.93;;;5.30;99.90;;;;;;5067912;28;20173;-58
2022/03/23 06:00:51;;;;;;;30.47;16.57;;;5.30;99.90;;;;;;5068001;28;20166;-58
2022/03/23 06:03:17;;;;;;;41.43;16.93;;;5.30;99.90;;;;;;5053351;28;20292;-59
2022/03/23 06:05:43;;;;;;;44.47;16.50;;;5.20;99.90;;;;;;5061105;28;20252;-59
2022/03/23 06:08:08;;;;;;;34.27;16.47;;;5.30;99.90;;;;;;5060150;28;20241;-59
2022/03/23 06:10:34;;;;;;;34.60;16.53;;;5.30;99.90;;;;;;5072889;28;20227;-59
2022/03/23 06:13:00;;;;;;;34.97;16.80;;;5.30;99.90;;;;;;5071518;28;20188;-59
2022/03/23 06:15:26;;;;;;;40.93;17.10;;;5.30;99.90;;;;;;5064600;28;20259;-59
2022/03/23 06:17:53;;;;;;;39.70;17.57;;;5.40;99.90;;;;;;5069440;28;20267;-59
2022/03/23 06:20:19;;;;;;;33.77;16.80;;;5.30;99.90;;;;;;5072221;28;20173;-58
2022/03/23 06:22:44;;;;;;;45.70;17.27;;;5.30;99.90;;;;;;5068992;28;20683;-59
2022/03/23 06:25:10;;;;;;;31.13;16.53;;;5.30;99.90;;;;;;5070271;28;20597;-58
2022/03/23 06:27:38;;;;;;;45.00;16.50;;;5.30;99.90;;;;;;5054356;28;20177;-59
2022/03/23 06:30:05;;;;;;;46.30;16.20;;;5.30;99.90;;;;;;5052930;28;20238;-59
2022/03/23 06:32:33;;;;;;;36.00;16.83;;;5.30;99.90;;;;;;5068469;28;20185;-59
2022/03/23 06:35:00;;;;;;;45.33;16.60;;;5.30;99.90;;;;;;5069182;28;20184;-59
2022/03/23 06:37:27;;;;;;;41.97;17.20;;;5.30;99.90;;;;;;5066882;28;20654;-60
2022/03/23 06:39:53;;;;;;;42.83;17.10;;;5.40;99.90;;;;;;5054757;28;20169;-60
2022/03/23 06:42:19;;;;;;;35.70;17.47;;;5.40;99.90;;;;;;5059323;28;20334;-60
2022/03/23 06:44:46;;;;;;;34.87;17.17;;;5.40;99.90;;;;;;5052552;28;20248;-60
2022/03/23 06:47:12;;;;;;;33.37;17.10;;;5.50;99.90;;;;;;5040282;28;20182;-60
2022/03/23 06:49:38;;;;;;;42.40;18.13;;;5.60;99.90;;;;;;5071931;28;20180;-60
2022/03/23 06:52:04;;;;;;;33.70;18.37;;;5.60;99.90;;;;;;5069922;28;20176;-60
2022/03/23 06:54:30;;;;;;;34.67;16.80;;;5.70;99.90;;;;;;5069983;28;20176;-60
2022/03/23 06:56:56;;;;;;;34.63;17.43;;;5.80;99.90;;;;;;5057326;28;20231;-59
2022/03/23 06:59:21;;;;;;;41.47;17.27;;;5.80;99.90;;;;;;5063361;28;20187;-59
2022/03/23 07:01:47;;;;;;;43.53;17.27;;;5.90;99.90;;;;;;5057591;28;20175;-58
2022/03/23 07:04:13;;;;;;;45.87;16.80;;;5.90;99.90;;;;;;5069021;28;20538;-58
2022/03/23 07:06:39;;;;;;;45.10;17.87;;;5.90;99.90;;;;;;5070598;28;20176;-58
2022/03/23 07:11:49;;;;;;;38.17;17.40;;;6.00;99.90;;;;;;5054734;28;20246;-59
2022/03/23 07:14:15;;;;;;;37.03;17.83;;;6.00;99.90;;;;;;5064338;28;20197;-58
2022/03/23 07:16:42;;;;;;;42.40;17.60;;;6.10;99.90;;;;;;5050803;28;20181;-58
2022/03/23 07:19:09;;;;;;;44.60;18.30;;;6.20;99.90;;;;;;5032121;28;20188;-58
2022/03/23 07:21:34;;;;;;;34.47;17.93;;;6.30;99.90;;;;;;5055540;28;20187;-58
2022/03/23 07:24:00;;;;;;;37.70;18.03;;;6.40;99.90;;;;;;5060723;28;20212;-59
2022/03/23 07:26:26;;;;;;;44.40;18.73;;;6.50;99.90;;;;;;5070592;28;20200;-58
2022/03/23 07:28:52;;;;;;;37.23;18.03;;;6.70;99.90;;;;;;5069907;28;20204;-58
2022/03/23 07:31:18;;;;;;;49.50;19.23;;;6.70;99.90;;;;;;5061661;28;20169;-59
2022/03/23 07:33:43;;;;;;;50.37;18.70;;;6.90;99.90;;;;;;5054462;28;20179;-59
2022/03/23 07:36:12;;;;;;;40.03;18.93;;;7.00;99.90;;;;;;5068743;28;20176;-59
2022/03/23 07:38:38;;;;;;;60.23;19.03;;;7.10;99.90;;;;;;5070274;28;20271;-58
2022/03/23 07:41:05;;;;;;;37.17;18.53;;;7.30;99.90;;;;;;5070537;28;20173;-58
2022/03/23 07:43:30;;;;;;;48.47;18.70;;;7.40;99.90;;;;;;5050477;28;20212;-58
2022/03/23 07:45:56;;;;;;;33.93;17.43;;;7.50;99.90;;;;;;5054741;28;20173;-60
2022/03/23 07:48:23;;;;;;;41.77;18.13;;;7.70;99.90;;;;;;5058539;28;20181;-59
2022/03/23 07:50:50;;;;;;;42.27;18.17;;;7.80;99.90;;;;;;5070021;28;20172;-62
2022/03/23 07:53:17;;;;;;;41.30;18.67;;;7.90;99.90;;;;;;5070047;28;20184;-66
2022/03/23 07:55:43;;;;;;;40.90;19.53;;;8.00;99.90;;;;;;5051609;28;20207;-64
2022/03/23 07:58:08;;;;;;;35.17;19.43;;;8.10;99.90;;;;;;5051652;28;20186;-64
2022/03/23 08:00:34;;;;;;;37.07;19.17;;;8.20;99.90;;;;;;5049976;28;20712;-63
2022/03/23 08:03:00;;;;;;;35.97;19.23;;;8.30;99.90;;;;;;5049807;28;20710;-64
2022/03/23 08:05:26;;;;;;;41.27;19.67;;;8.50;99.90;;;;;;5049973;28;20173;-63
2022/03/23 08:07:52;;;;;;;38.83;19.57;;;8.60;99.90;;;;;;5049667;28;20235;-64
2022/03/23 08:10:18;;;;;;;42.63;20.33;;;8.70;99.90;;;;;;5006057;28;1246530;-63
2022/03/23 08:12:44;;;;;;;51.47;20.80;;;8.80;99.90;;;;;;5051402;28;20417;-63
2022/03/23 08:15:10;;;;;;;40.87;20.20;;;9.10;99.90;;;;;;5050108;28;20173;-64
2022/03/23 08:17:39;;;;;;;39.90;20.83;;;9.10;99.90;;;;;;5050429;28;20181;-68
2022/03/23 08:22:54;;;;;;;43.10;20.23;;;9.30;99.90;;;;;;5050404;28;20227;-66
2022/03/23 08:25:20;;;;;;;51.30;21.03;;;9.60;99.90;;;;;;5050383;28;20177;-66
2022/03/23 08:27:45;;;;;;;44.37;20.87;;;9.90;99.90;;;;;;5050305;28;20252;-67
2022/03/23 08:30:12;;;;;;;34.03;20.80;;;9.90;99.90;;;;;;5055018;28;20546;-67
2022/03/23 08:32:37;;;;;;;34.87;20.77;;;10.10;99.90;;;;;;5056160;28;20185;-68
2022/03/23 08:35:03;;;;;;;39.03;21.10;;;10.10;99.90;;;;;;5050410;28;20200;-68
2022/03/23 08:37:30;;;;;;;38.57;21.37;;;10.10;99.90;;;;;;5070062;28;20180;-67
2022/03/23 08:39:56;;;;;;;43.03;22.30;;;10.00;99.90;;;;;;5068920;28;20169;-62
2022/03/23 08:42:22;;;;;;;41.43;21.30;;;10.30;99.90;;;;;;5058645;28;20207;-62
2022/03/23 08:44:48;;;;;;;47.03;20.63;;;11.40;99.90;;;;;;5070046;28;20204;-63
2022/03/23 08:47:13;;;;;;;42.85;21.73;;;13.40;99.90;;;;;;5070205;28;20213;-63
2022/03/23 08:49:39;;;;;;;38.95;20.02;;;15.00;99.90;;;;;;5070388;28;20244;-64
2022/03/23 08:52:06;;;;;;;33.95;20.20;;;15.30;99.90;;;;;;5069919;28;20597;-64
2022/03/23 08:54:32;;;;;;;37.08;20.83;;;16.80;99.90;;;;;;5070207;28;20250;-72
2022/03/23 08:56:58;;;;;;;53.55;20.67;;;18.30;99.90;;;;;;5068555;28;20171;-71
2022/03/23 08:59:24;;;;;;;32.63;21.70;;;17.80;99.90;;;;;;5070273;28;20546;-70
2022/03/23 09:01:50;;;;;;;33.80;20.70;;;16.10;99.90;;;;;;5070072;28;20214;-68
2022/03/23 09:04:16;;;;;;;38.80;22.08;;;15.20;99.90;;;;;;5070060;28;20187;-71
2022/03/23 09:06:43;;;;;;;36.53;21.40;;;16.90;99.90;;;;;;5065615;28;20247;-71
2022/03/23 09:09:08;;;;;;;39.50;21.83;;;17.50;99.90;;;;;;5070103;28;20181;-71
2022/03/23 09:11:34;;;;;;;32.00;21.02;;;18.10;99.90;;;;;;5069620;28;20686;-71
2022/03/23 09:14:00;;;;;;;37.40;21.10;;;18.60;99.90;;;;;;5064943;28;20551;-71
2022/03/23 09:16:26;;;;;;;31.80;20.73;;;18.20;99.90;;;;;;5062211;28;20184;-71
2022/03/23 09:18:53;;;;;;;34.67;21.77;;;18.40;99.90;;;;;;5060418;28;20169;-71
2022/03/23 09:21:21;;;;;;;38.45;20.65;;;18.80;99.90;;;;;;5058441;28;20196;-71
2022/03/23 09:23:48;;;;;;;41.35;21.65;;;20.10;99.90;;;;;;5060892;28;20197;-70
2022/03/23 09:26:14;;;;;;;37.25;21.65;;;20.60;99.90;;;;;;5053578;28;20211;-71
2022/03/23 09:28:39;;;;;;;42.92;20.70;;;20.20;99.90;;;;;;5061265;28;20269;-71
2022/03/23 09:31:06;;;;;;;35.50;20.63;;;20.60;99.90;;;;;;5068805;28;20175;-71
2022/03/23 09:33:32;;;;;;;34.72;20.80;;;19.30;99.90;;;;;;5067877;28;20168;-71
2022/03/23 09:35:58;;;;;;;34.65;21.00;;;21.40;99.90;;;;;;5063999;28;20192;-71
2022/03/23 09:38:26;;;;;;;28.88;20.33;;;21.00;99.90;;;;;;5038173;28;20258;-71
2022/03/23 09:40:52;;;;;;;31.20;19.63;;;21.40;99.90;;;;;;5049867;28;20188;-71
2022/03/23 09:43:23;;;;;;;29.70;19.05;;;22.30;99.90;;;;;;5051565;28;20270;-71
2022/03/23 09:45:50;;;;;;;29.48;19.05;;;21.70;99.90;;;;;;5053305;28;20176;-71
2022/03/23 09:48:20;;;;;;;33.17;20.13;;;22.80;99.90;;;;;;5052983;28;20165;-71
2022/03/23 09:50:50;;;;;;;29.23;18.63;;;23.30;99.90;;;;;;5035295;28;20183;-71
2022/03/23 09:53:16;;;;;;;31.25;19.60;;;23.50;99.90;;;;;;5053154;28;20177;-61
2022/03/23 09:55:43;;;;;;;26.60;18.98;;;23.30;99.90;;;;;;5052915;28;20252;-64
2022/03/23 09:58:09;;;;;;;28.58;18.60;;;21.00;99.90;;;;;;5053090;28;20173;-64
2022/03/23 10:00:38;;;;;;;27.83;18.92;;;22.40;99.90;;;;;;5054317;28;20173;-64
2022/03/23 10:03:10;;;;;;;30.20;18.85;;;23.60;99.90;;;;;;5055012;28;20208;-65
2022/03/23 10:06:00;;;;;;;26.33;19.23;;;23.00;99.90;;;;;;5072697;28;20211;-64
2022/03/23 10:09:03;;;;;;;26.33;18.48;;;22.90;99.90;;;;;;5068474;28;20256;-65
2022/03/23 10:12:07;;;;;;;31.40;18.50;;;23.70;99.90;;;;;;5066334;28;20695;-65
2022/03/23 10:14:45;;;;;;;30.60;18.60;;;24.00;99.90;;;;;;5052760;28;20166;-65
2022/03/23 10:17:49;;;;;;;31.05;19.27;;;24.50;99.90;;;;;;5034951;28;20189;-65
2022/03/23 10:20:15;;;;;;;27.70;19.00;;;25.60;99.90;;;;;;5034809;28;20169;-65
2022/03/23 10:22:52;;;;;;;31.70;19.10;;;25.20;99.90;;;;;;5052571;28;20209;-65
2022/03/23 10:25:20;;;;;;;33.05;18.33;;;25.60;99.90;;;;;;5052470;28;20168;-65
2022/03/23 10:27:47;;;;;;;25.75;18.83;;;25.80;99.90;;;;;;5051113;28;20662;-65
2022/03/23 10:30:14;;;;;;;31.90;18.05;;;24.70;99.90;;;;;;5050518;28;20268;-65
2022/03/23 10:32:44;;;;;;;28.00;18.25;;;25.80;99.90;;;;;;5050494;28;20173;-65
2022/03/23 10:35:13;;;;;;;27.88;18.63;;;26.40;99.50;;;;;;5050533;28;20260;-65
2022/03/23 10:37:39;;;;;;;28.45;18.50;;;26.80;98.00;;;;;;5032677;28;20203;-65
2022/03/23 10:40:11;;;;;;;32.00;17.70;;;26.30;98.50;;;;;;5050639;28;20169;-65
2022/03/23 10:42:40;;;;;;;27.65;17.35;;;26.90;98.00;;;;;;5051213;28;20208;-65
2022/03/23 10:45:08;;;;;;;31.17;17.38;;;26.90;97.20;;;;;;5052221;28;20174;-65
2022/03/23 10:47:35;;;;;;;23.50;16.83;;;26.90;97.00;;;;;;5034121;28;20677;-65
2022/03/23 10:50:15;;;;;;;28.67;17.55;;;27.10;97.10;;;;;;5033997;28;20173;-65
2022/03/23 10:53:02;;;;;;;33.40;17.65;;;26.00;97.00;;;;;;5052060;28;20235;-65
2022/03/23 10:55:30;;;;;;;28.40;17.20;;;24.60;97.90;;;;;;5061767;28;20251;-67
2022/03/23 10:57:59;;;;;;;26.23;17.67;;;24.10;98.50;;;;;;5071880;28;20176;-64
2022/03/23 11:00:30;;;;;;;28.83;19.70;;;23.70;99.10;;;;;;5071758;28;20208;-65
2022/03/23 11:02:57;;;;;;;30.52;18.15;;;23.60;98.70;;;;;;5071811;28;20622;-64
2022/03/23 11:05:36;;;;;;;29.10;17.08;;;24.90;97.70;;;;;;5053672;28;20185;-65
2022/03/23 11:08:12;;;;;;;24.92;15.85;;;26.30;97.50;;;;;;5071657;28;20625;-62
2022/03/23 11:16:22;;;;;;;21.05;15.43;;;26.30;95.80;;;;;;5071684;28;20187;-63
2022/03/23 11:18:47;;;;;;;23.55;14.85;;;26.40;95.00;;;;;;5071547;28;20176;-62
2022/03/23 11:21:13;;;;;;;24.02;15.25;;;25.90;95.10;;;;;;5071392;28;20642;-64
2022/03/23 11:23:39;;;;;;;25.77;15.57;;;26.00;95.50;;;;;;5071023;28;20261;-63
2022/03/23 11:26:09;;;;;;;23.85;15.38;;;26.70;94.90;;;;;;5070051;28;20160;-64
2022/03/23 11:28:40;;;;;;;28.52;15.73;;;25.70;94.90;;;;;;5069556;28;20206;-67
2022/03/23 11:31:10;;;;;;;22.38;14.15;;;26.00;95.10;;;;;;5051341;28;20168;-63
2022/03/23 11:33:37;;;;;;;24.20;14.48;;;26.50;95.40;;;;;;5069360;28;20195;-63
2022/03/23 11:36:11;;;;;;;18.05;12.90;;;25.80;93.10;;;;;;5069653;28;20666;-63
2022/03/23 11:38:38;;;;;;;17.90;13.20;;;25.20;93.60;;;;;;5071312;28;20179;-62
2022/03/23 11:41:05;;;;;;;17.42;12.75;;;24.50;93.40;;;;;;5070958;28;20171;-63
2022/03/23 11:43:37;;;;;;;17.88;12.20;;;23.80;94.00;;;;;;5070656;28;20386;-63
2022/03/23 11:46:04;;;;;;;21.67;12.35;;;25.50;93.20;;;;;;5070989;28;20718;-63
2022/03/23 11:49:00;;;;;;;22.73;12.73;;;26.10;92.70;;;;;;5070822;28;20581;-63
2022/03/23 11:51:48;;;;;;;21.20;12.52;;;25.70;93.40;;;;;;5050907;28;20248;-63
2022/03/23 11:57:54;;;;;;;17.48;10.73;;;26.20;92.30;;;;;;5049153;28;20176;-63
2022/03/23 12:00:20;;;;;;;13.85;10.15;;;26.90;92.80;;;;;;5051044;28;20176;-63
2022/03/23 12:02:46;;;;;;;17.05;10.00;;;25.60;90.80;;;;;;5036501;28;20303;-64
2022/03/23 12:05:26;;;;;;;19.10;9.15;;;25.30;90.80;;;;;;5050454;28;20303;-64
2022/03/23 12:07:53;;;;;;;13.73;8.77;;;23.40;90.10;;;;;;5053299;28;20180;-63
2022/03/23 12:10:31;;;;;;;16.73;9.50;;;22.50;90.40;;;;;;5062418;28;20212;-63
2022/03/23 12:13:18;;;;;;;17.77;8.55;;;22.90;90.10;;;;;;5051976;28;20173;-63
2022/03/23 12:15:57;;;;;;;20.98;8.38;;;22.80;90.60;;;;;;5050484;28;20542;-63
2022/03/23 12:18:58;;;;;;;14.30;8.85;;;24.40;91.10;;;;;;5050396;28;20228;-63
2022/03/23 12:21:29;;;;;;;15.93;9.30;;;23.40;90.00;;;;;;5050595;28;20184;-62
2022/03/23 12:24:07;;;;;;;13.57;8.65;;;22.40;90.00;;;;;;5063089;28;20219;-63
2022/03/23 12:26:42;;;;;;;15.80;8.38;;;24.50;90.30;;;;;;5063367;28;20168;-62
2022/03/23 12:29:36;;;;;;;13.43;8.80;;;25.60;90.20;;;;;;5070042;28;20190;-63
2022/03/23 12:32:05;;;;;;;14.05;8.27;;;24.20;90.00;;;;;;5067659;28;20211;-63
2022/03/23 12:34:32;;;;;;;20.50;8.38;;;23.90;90.40;;;;;;5070273;28;20309;-63
2022/03/23 12:37:16;;;;;;;15.52;7.57;;;24.10;88.90;;;;;;5065622;28;20176;-63
2022/03/23 12:39:44;;;;;;;10.93;6.70;;;23.30;88.10;;;;;;5069963;28;20180;-63
2022/03/23 12:42:13;;;;;;;15.30;8.13;;;22.50;88.70;;;;;;5070073;28;20223;-63
2022/03/23 12:45:04;;;;;;;11.77;7.53;;;23.20;89.00;;;;;;5070035;28;20175;-63
2022/03/23 12:47:32;;;;;;;13.80;8.38;;;24.00;90.20;;;;;;5058929;28;20188;-63
2022/03/23 12:58:30;;;;;;;12.75;8.15;;;23.30;89.20;;;;;;5069728;28;20211;-63
2022/03/23 13:01:08;;;;;;;11.85;7.70;;;23.20;89.20;;;;;;5069462;28;20199;-63
2022/03/23 13:03:43;;;;;;;16.15;8.50;;;24.20;89.30;;;;;;5068816;28;20656;-63
2022/03/23 13:06:16;;;;;;;15.32;8.30;;;25.40;90.10;;;;;;5069767;28;20172;-63
2022/03/23 13:08:49;;;;;;;15.50;8.18;;;26.30;89.50;;;;;;5069813;28;20173;-63
2022/03/23 13:11:26;;;;;;;15.65;7.95;;;26.80;89.00;;;;;;5069466;28;20209;-62